Aviation Digital Data Service (ADDS)

Output produced by METARs form (0104 UTC 21 October 2017)
found at http://www.aviationweather.gov/adds/metars/
 
METAR text: KPIT 210051Z 00000KT 10SM CLR 13/04 A3023 RMK AO2 SLP247 T01330044
Conditions at: KPIT (PITTSBURGH , PA, US) observed 0051 UTC 21 October 2017
Temperature: 13.3°C (56°F)
Dewpoint: 4.4°C (40°F) [RH = 55%]
Pressure (altimeter): 30.23 inches Hg (1023.8 mb)
[Sea-level pressure: 1024.7 mb]
Winds: calm
Visibility: 10 or more miles (16+ km)
Ceiling: at least 12,000 feet AGL
Clouds: sky clear below 12,000 feet AGL
Weather: no significant weather observed at this time

METAR text: KPIT 202351Z 00000KT 10SM FEW250 14/05 A3023 RMK AO2 SLP247 T01390050 10228 20139 55003
Conditions at: KPIT (PITTSBURGH , PA, US) observed 2351 UTC 20 October 2017
Temperature: 13.9°C (57°F)
Dewpoint: 5.0°C (41°F) [RH = 55%]
Pressure (altimeter): 30.23 inches Hg (1023.8 mb)
[Sea-level pressure: 1024.7 mb]
Winds: calm
Visibility: 10 or more miles (16+ km)
Ceiling: at least 12,000 feet AGL
Clouds: few clouds at 25000 feet AGL
Weather: no significant weather observed at this time

METAR text: KPIT 202251Z 00000KT 10SM FEW250 19/03 A3023 RMK AO2 SLP244 T01890033
Conditions at: KPIT (PITTSBURGH , PA, US) observed 2251 UTC 20 October 2017
Temperature: 18.9°C (66°F)
Dewpoint: 3.3°C (38°F) [RH = 35%]
Pressure (altimeter): 30.23 inches Hg (1023.8 mb)
[Sea-level pressure: 1024.4 mb]
Winds: calm
Visibility: 10 or more miles (16+ km)
Ceiling: at least 12,000 feet AGL
Clouds: few clouds at 25000 feet AGL
Weather: no significant weather observed at this time

METAR text: KPIT 202151Z 00000KT 10SM FEW250 21/00 A3023 RMK AO2 SLP243 T02110000
Conditions at: KPIT (PITTSBURGH , PA, US) observed 2151 UTC 20 October 2017
Temperature: 21.1°C (70°F)
Dewpoint: 0.0°C (32°F) [RH = 24%]
Pressure (altimeter): 30.23 inches Hg (1023.8 mb)
[Sea-level pressure: 1024.3 mb]
Winds: calm
Visibility: 10 or more miles (16+ km)
Ceiling: at least 12,000 feet AGL
Clouds: few clouds at 25000 feet AGL
Weather: no significant weather observed at this time

METAR text: KPIT 202051Z 00000KT 10SM FEW250 22/M01 A3024 RMK AO2 SLP246 T02221011 56011
Conditions at: KPIT (PITTSBURGH , PA, US) observed 2051 UTC 20 October 2017
Temperature: 22.2°C (72°F)
Dewpoint: -1.1°C (30°F) [RH = 21%]
Pressure (altimeter): 30.24 inches Hg (1024.1 mb)
[Sea-level pressure: 1024.6 mb]
Winds: calm
Visibility: 10 or more miles (16+ km)
Ceiling: at least 12,000 feet AGL
Clouds: few clouds at 25000 feet AGL
Weather: no significant weather observed at this time

METAR text: KPIT 201951Z 00000KT 10SM FEW250 22/M01 A3025 RMK AO2 SLP248 T02221011
Conditions at: KPIT (PITTSBURGH , PA, US) observed 1951 UTC 20 October 2017
Temperature: 22.2°C (72°F)
Dewpoint: -1.1°C (30°F) [RH = 21%]
Pressure (altimeter): 30.25 inches Hg (1024.5 mb)
[Sea-level pressure: 1024.8 mb]
Winds: calm
Visibility: 10 or more miles (16+ km)
Ceiling: at least 12,000 feet AGL
Clouds: few clouds at 25000 feet AGL
Weather: no significant weather observed at this time

METAR text: KPIT 201851Z 36003KT 10SM FEW250 22/M01 A3026 RMK AO2 SLP251 T02171011
Conditions at: KPIT (PITTSBURGH , PA, US) observed 1851 UTC 20 October 2017
Temperature: 21.7°C (71°F)
Dewpoint: -1.1°C (30°F) [RH = 22%]
Pressure (altimeter): 30.26 inches Hg (1024.8 mb)
[Sea-level pressure: 1025.1 mb]
Winds: from the N (360 degrees) at 3 MPH (3 knots; 1.6 m/s)
Visibility: 10 or more miles (16+ km)
Ceiling: at least 12,000 feet AGL
Clouds: few clouds at 25000 feet AGL
Weather: no significant weather observed at this time

METAR text: KPIT 201751Z VRB03KT 10SM FEW250 21/M04 A3028 RMK AO2 SLP258 T02061039 10211 20078 58016
Conditions at: KPIT (PITTSBURGH , PA, US) observed 1751 UTC 20 October 2017
Temperature: 20.6°C (69°F)
Dewpoint: -3.9°C (25°F) [RH = 19%]
Pressure (altimeter): 30.28 inches Hg (1025.5 mb)
[Sea-level pressure: 1025.8 mb]
Winds: variable direction winds at 3 MPH (3 knots; 1.6 m/s)
Visibility: 10 or more miles (16+ km)
Ceiling: at least 12,000 feet AGL
Clouds: few clouds at 25000 feet AGL
Weather: no significant weather observed at this time

METAR text: KPIT 201651Z 02005KT 10SM FEW250 20/M04 A3030 RMK AO2 SLP265 T02001044
Conditions at: KPIT (PITTSBURGH , PA, US) observed 1651 UTC 20 October 2017
Temperature: 20.0°C (68°F)
Dewpoint: -4.4°C (24°F) [RH = 19%]
Pressure (altimeter): 30.30 inches Hg (1026.2 mb)
[Sea-level pressure: 1026.5 mb]
Winds: from the NNE (20 degrees) at 6 MPH (5 knots; 2.6 m/s)
Visibility: 10 or more miles (16+ km)
Ceiling: at least 12,000 feet AGL
Clouds: few clouds at 25000 feet AGL
Weather: no significant weather observed at this time

METAR text: KPIT 201551Z 35005KT 10SM SCT250 19/01 A3032 RMK AO2 SLP271 T01890006
Conditions at: KPIT (PITTSBURGH , PA, US) observed 1551 UTC 20 October 2017
Temperature: 18.9°C (66°F)
Dewpoint: 0.6°C (33°F) [RH = 29%]
Pressure (altimeter): 30.32 inches Hg (1026.8 mb)
[Sea-level pressure: 1027.1 mb]
Winds: from the N (350 degrees) at 6 MPH (5 knots; 2.6 m/s)
Visibility: 10 or more miles (16+ km)
Ceiling: at least 12,000 feet AGL
Clouds: scattered clouds at 25000 feet AGL
Weather: no significant weather observed at this time

METAR text: KPIT 201451Z 01004KT 10SM SCT250 17/06 A3032 RMK AO2 SLP274 T01720056 51015
Conditions at: KPIT (PITTSBURGH , PA, US) observed 1451 UTC 20 October 2017
Temperature: 17.2°C (63°F)
Dewpoint: 5.6°C (42°F) [RH = 46%]
Pressure (altimeter): 30.32 inches Hg (1026.8 mb)
[Sea-level pressure: 1027.4 mb]
Winds: from the N (10 degrees) at 5 MPH (4 knots; 2.1 m/s)
Visibility: 10 or more miles (16+ km)
Ceiling: at least 12,000 feet AGL
Clouds: scattered clouds at 25000 feet AGL
Weather: no significant weather observed at this time

METAR text: KPIT 201351Z 00000KT 10SM SCT250 13/10 A3032 RMK AO2 SLP274 T01330100
Conditions at: KPIT (PITTSBURGH , PA, US) observed 1351 UTC 20 October 2017
Temperature: 13.3°C (56°F)
Dewpoint: 10.0°C (50°F) [RH = 80%]
Pressure (altimeter): 30.32 inches Hg (1026.8 mb)
[Sea-level pressure: 1027.4 mb]
Winds: calm
Visibility: 10 or more miles (16+ km)
Ceiling: at least 12,000 feet AGL
Clouds: scattered clouds at 25000 feet AGL
Weather: no significant weather observed at this time

METAR text: KPIT 201251Z 00000KT 10SM BKN250 10/09 A3030 RMK AO2 SLP269 T01000089
Conditions at: KPIT (PITTSBURGH , PA, US) observed 1251 UTC 20 October 2017
Temperature: 10.0°C (50°F)
Dewpoint: 8.9°C (48°F) [RH = 93%]
Pressure (altimeter): 30.30 inches Hg (1026.2 mb)
[Sea-level pressure: 1026.9 mb]
Winds: calm
Visibility: 10 or more miles (16+ km)
Ceiling: 25000 feet AGL
Clouds: broken clouds at 25000 feet AGL
Weather: no significant weather observed at this time

METAR text: KPIT 201151Z 00000KT 10SM BKN250 09/07 A3028 RMK AO2 SLP261 T00890072 10133 20083 53021
Conditions at: KPIT (PITTSBURGH , PA, US) observed 1151 UTC 20 October 2017
Temperature: 8.9°C (48°F)
Dewpoint: 7.2°C (45°F) [RH = 89%]
Pressure (altimeter): 30.28 inches Hg (1025.5 mb)
[Sea-level pressure: 1026.1 mb]
Winds: calm
Visibility: 10 or more miles (16+ km)
Ceiling: 25000 feet AGL
Clouds: broken clouds at 25000 feet AGL
Weather: no significant weather observed at this time

METAR text: KPIT 201051Z 00000KT 10SM SCT250 09/08 A3026 RMK AO2 SLP252 T00890078
Conditions at: KPIT (PITTSBURGH , PA, US) observed 1051 UTC 20 October 2017
Temperature: 8.9°C (48°F)
Dewpoint: 7.8°C (46°F) [RH = 93%]
Pressure (altimeter): 30.26 inches Hg (1024.8 mb)
[Sea-level pressure: 1025.2 mb]
Winds: calm
Visibility: 10 or more miles (16+ km)
Ceiling: at least 12,000 feet AGL
Clouds: scattered clouds at 25000 feet AGL
Weather: no significant weather observed at this time

METAR text: KPIT 200951Z 00000KT 10SM FEW250 11/08 A3023 RMK AO2 SLP244 T01060083
Conditions at: KPIT (PITTSBURGH , PA, US) observed 0951 UTC 20 October 2017
Temperature: 10.6°C (51°F)
Dewpoint: 8.3°C (47°F) [RH = 86%]
Pressure (altimeter): 30.23 inches Hg (1023.8 mb)
[Sea-level pressure: 1024.4 mb]
Winds: calm
Visibility: 10 or more miles (16+ km)
Ceiling: at least 12,000 feet AGL
Clouds: few clouds at 25000 feet AGL
Weather: no significant weather observed at this time

METAR text: KPIT 200851Z 29004KT 10SM FEW250 11/08 A3021 RMK AO2 SLP236 T01060083 53005
Conditions at: KPIT (PITTSBURGH , PA, US) observed 0851 UTC 20 October 2017
Temperature: 10.6°C (51°F)
Dewpoint: 8.3°C (47°F) [RH = 86%]
Pressure (altimeter): 30.21 inches Hg (1023.1 mb)
[Sea-level pressure: 1023.6 mb]
Winds: from the WNW (290 degrees) at 5 MPH (4 knots; 2.1 m/s)
Visibility: 10 or more miles (16+ km)
Ceiling: at least 12,000 feet AGL
Clouds: few clouds at 25000 feet AGL
Weather: no significant weather observed at this time

METAR text: KPIT 200751Z 00000KT 10SM SCT250 11/08 A3020 RMK AO2 SLP232 T01110083
Conditions at: KPIT (PITTSBURGH , PA, US) observed 0751 UTC 20 October 2017
Temperature: 11.1°C (52°F)
Dewpoint: 8.3°C (47°F) [RH = 83%]
Pressure (altimeter): 30.20 inches Hg (1022.8 mb)
[Sea-level pressure: 1023.2 mb]
Winds: calm
Visibility: 10 or more miles (16+ km)
Ceiling: at least 12,000 feet AGL
Clouds: scattered clouds at 25000 feet AGL
Weather: no significant weather observed at this time

METAR text: KPIT 200651Z 24003KT 10SM SCT250 12/08 A3019 RMK AO2 SLP229 T01220083
Conditions at: KPIT (PITTSBURGH , PA, US) observed 0651 UTC 20 October 2017
Temperature: 12.2°C (54°F)
Dewpoint: 8.3°C (47°F) [RH = 77%]
Pressure (altimeter): 30.19 inches Hg (1022.4 mb)
[Sea-level pressure: 1022.9 mb]
Winds: from the WSW (240 degrees) at 3 MPH (3 knots; 1.6 m/s)
Visibility: 10 or more miles (16+ km)
Ceiling: at least 12,000 feet AGL
Clouds: scattered clouds at 25000 feet AGL
Weather: no significant weather observed at this time

METAR text: KPIT 200551Z 27004KT 10SM BKN250 13/08 A3020 RMK AO2 SLP231 T01280083 10178 20128 50006
Conditions at: KPIT (PITTSBURGH , PA, US) observed 0551 UTC 20 October 2017
Temperature: 12.8°C (55°F)
Dewpoint: 8.3°C (47°F) [RH = 74%]
Pressure (altimeter): 30.20 inches Hg (1022.8 mb)
[Sea-level pressure: 1023.1 mb]
Winds: from the W (270 degrees) at 5 MPH (4 knots; 2.1 m/s)
Visibility: 10 or more miles (16+ km)
Ceiling: 25000 feet AGL
Clouds: broken clouds at 25000 feet AGL
Weather: no significant weather observed at this time

METAR text: KPIT 200451Z 29004KT 10SM BKN250 13/08 A3020 RMK AO2 SLP232 T01280083 402110056
Conditions at: KPIT (PITTSBURGH , PA, US) observed 0451 UTC 20 October 2017
Temperature: 12.8°C (55°F)
Dewpoint: 8.3°C (47°F) [RH = 74%]
Pressure (altimeter): 30.20 inches Hg (1022.8 mb)
[Sea-level pressure: 1023.2 mb]
Winds: from the WNW (290 degrees) at 5 MPH (4 knots; 2.1 m/s)
Visibility: 10 or more miles (16+ km)
Ceiling: 25000 feet AGL
Clouds: broken clouds at 25000 feet AGL
Weather: no significant weather observed at this time

METAR text: KPIT 200351Z 23008KT 10SM BKN250 16/08 A3019 RMK AO2 SLP226 T01560083
Conditions at: KPIT (PITTSBURGH , PA, US) observed 0351 UTC 20 October 2017
Temperature: 15.6°C (60°F)
Dewpoint: 8.3°C (47°F) [RH = 62%]
Pressure (altimeter): 30.19 inches Hg (1022.4 mb)
[Sea-level pressure: 1022.6 mb]
Winds: from the SW (230 degrees) at 9 MPH (8 knots; 4.2 m/s)
Visibility: 10 or more miles (16+ km)
Ceiling: 25000 feet AGL
Clouds: broken clouds at 25000 feet AGL
Weather: no significant weather observed at this time

METAR text: KPIT 200251Z 23006KT 10SM BKN250 16/08 A3018 RMK AO2 SLP225 T01610083 51003
Conditions at: KPIT (PITTSBURGH , PA, US) observed 0251 UTC 20 October 2017
Temperature: 16.1°C (61°F)
Dewpoint: 8.3°C (47°F) [RH = 60%]
Pressure (altimeter): 30.18 inches Hg (1022.1 mb)
[Sea-level pressure: 1022.5 mb]
Winds: from the SW (230 degrees) at 7 MPH (6 knots; 3.1 m/s)
Visibility: 10 or more miles (16+ km)
Ceiling: 25000 feet AGL
Clouds: broken clouds at 25000 feet AGL
Weather: no significant weather observed at this time

METAR text: KPIT 200151Z 21006KT 10SM OVC250 17/08 A3018 RMK AO2 SLP225 T01670078
Conditions at: KPIT (PITTSBURGH , PA, US) observed 0151 UTC 20 October 2017
Temperature: 16.7°C (62°F)
Dewpoint: 7.8°C (46°F) [RH = 56%]
Pressure (altimeter): 30.18 inches Hg (1022.1 mb)
[Sea-level pressure: 1022.5 mb]
Winds: from the SSW (210 degrees) at 7 MPH (6 knots; 3.1 m/s)
Visibility: 10 or more miles (16+ km)
Ceiling: 25000 feet AGL
Clouds: overcast cloud deck at 25000 feet AGL
Weather: no significant weather observed at this time